createdAt,value
2018-09-18T00:01:56.440Z,99.90
2018-09-18T00:04:25.522Z,99.90
2018-09-18T00:06:54.283Z,99.90
2018-09-18T00:09:23.179Z,99.90
2018-09-18T00:11:52.015Z,99.90
2018-09-18T00:14:20.814Z,99.90
2018-09-18T00:16:49.844Z,99.90
2018-09-18T00:19:18.625Z,99.90
2018-09-18T00:21:47.440Z,99.90
2018-09-18T00:24:16.254Z,99.90
2018-09-18T00:26:45.063Z,99.90
2018-09-18T00:29:14.004Z,99.90
2018-09-18T00:31:42.751Z,99.90
2018-09-18T00:34:11.577Z,99.90
2018-09-18T00:36:40.351Z,99.90
2018-09-18T00:39:09.833Z,99.90
2018-09-18T00:41:38.985Z,99.90
2018-09-18T00:44:07.812Z,99.90
2018-09-18T00:46:36.617Z,99.90
2018-09-18T00:49:05.400Z,99.90
2018-09-18T00:51:34.171Z,99.90
2018-09-18T00:54:03.084Z,99.90
2018-09-18T00:56:31.986Z,99.90
2018-09-18T00:59:01.035Z,99.90
2018-09-18T01:01:29.790Z,99.90
2018-09-18T01:03:58.561Z,99.90
2018-09-18T01:06:27.559Z,99.90
2018-09-18T01:08:56.460Z,99.90
2018-09-18T01:11:25.203Z,99.90
2018-09-18T01:13:54.100Z,99.90
2018-09-18T01:16:22.895Z,99.90
2018-09-18T01:18:51.752Z,99.90
2018-09-18T01:21:20.503Z,99.90
2018-09-18T01:23:49.573Z,99.90
2018-09-18T01:26:18.323Z,99.90
2018-09-18T01:28:47.080Z,99.90
2018-09-18T01:31:16.577Z,99.90
2018-09-18T01:33:45.670Z,99.90
2018-09-18T01:36:14.486Z,99.90
2018-09-18T01:38:43.321Z,99.90
2018-09-18T01:41:12.090Z,99.90
2018-09-18T01:43:41.099Z,99.90
2018-09-18T01:46:09.869Z,99.90
2018-09-18T01:48:38.660Z,99.90
2018-09-18T01:51:07.414Z,99.90
2018-09-18T01:53:36.409Z,99.90
2018-09-18T01:56:05.362Z,99.90
2018-09-18T01:58:34.172Z,99.90
2018-09-18T02:01:03.039Z,99.90
2018-09-18T02:03:31.902Z,99.90
2018-09-18T02:06:00.663Z,99.90
2018-09-18T02:08:29.511Z,99.90
2018-09-18T02:10:58.230Z,99.90
2018-09-18T02:13:26.970Z,99.90
2018-09-18T02:15:55.725Z,99.90
2018-09-18T02:18:24.442Z,99.90
2018-09-18T02:20:53.298Z,99.90
2018-09-18T02:23:22.074Z,99.90
2018-09-18T02:25:50.848Z,99.90
2018-09-18T02:28:19.552Z,99.90
2018-09-18T02:30:48.332Z,99.90
2018-09-18T02:33:17.267Z,99.90
2018-09-18T02:35:46.048Z,99.90
2018-09-18T02:38:14.795Z,99.90
2018-09-18T02:40:43.601Z,99.90
2018-09-18T02:43:12.412Z,99.90
2018-09-18T02:45:41.549Z,99.90
2018-09-18T02:48:10.345Z,99.90
2018-09-18T02:50:39.090Z,99.90
2018-09-18T02:53:07.881Z,99.90
2018-09-18T02:55:36.642Z,99.90
2018-09-18T02:58:12.113Z,99.90
2018-09-18T03:00:40.966Z,99.90
2018-09-18T03:03:09.795Z,99.90
2018-09-18T03:05:38.654Z,99.90
2018-09-18T03:08:07.431Z,99.90
2018-09-18T03:10:36.244Z,99.90
2018-09-18T03:13:05.117Z,99.90
2018-09-18T03:15:33.905Z,99.90
2018-09-18T03:18:02.671Z,99.90
2018-09-18T03:20:31.687Z,99.90
2018-09-18T03:23:00.428Z,99.90
2018-09-18T03:25:29.383Z,99.90
2018-09-18T03:27:58.202Z,99.90
2018-09-18T03:30:27.022Z,99.90
2018-09-18T03:32:55.927Z,99.90
2018-09-18T03:35:24.696Z,99.90
2018-09-18T03:37:59.242Z,99.90
2018-09-18T03:40:28.092Z,99.90
2018-09-18T03:42:56.878Z,99.90
2018-09-18T03:45:25.630Z,99.90
2018-09-18T03:47:54.444Z,99.90
2018-09-18T03:50:23.803Z,99.90
2018-09-18T03:52:53.138Z,99.90
2018-09-18T03:55:22.018Z,99.90
2018-09-18T03:57:50.875Z,99.90
2018-09-18T04:00:20.086Z,99.90
2018-09-18T04:02:48.990Z,99.90
2018-09-18T04:05:18.009Z,99.90
2018-09-18T04:07:47.073Z,99.90
2018-09-18T04:10:16.078Z,99.90
2018-09-18T04:12:44.946Z,99.90
2018-09-18T04:15:13.808Z,99.90
2018-09-18T04:17:42.852Z,99.90
2018-09-18T04:20:11.856Z,99.90
2018-09-18T04:22:40.647Z,99.90
2018-09-18T04:25:09.676Z,99.90
2018-09-18T04:27:38.674Z,99.90
2018-09-18T04:30:07.695Z,99.90
2018-09-18T04:32:36.509Z,99.90
2018-09-18T04:35:05.377Z,99.90
2018-09-18T04:37:34.270Z,99.90
2018-09-18T04:40:03.049Z,99.90
2018-09-18T04:42:32.051Z,99.90
2018-09-18T04:45:00.963Z,99.90
2018-09-18T04:47:30.032Z,99.90
2018-09-18T04:49:58.825Z,99.90
2018-09-18T04:52:27.753Z,99.90
2018-09-18T04:54:56.755Z,99.90
2018-09-18T04:57:25.567Z,99.90
2018-09-18T04:59:54.390Z,99.90
2018-09-18T05:02:23.183Z,99.90
2018-09-18T05:04:51.998Z,99.90
2018-09-18T05:07:20.935Z,99.90
2018-09-18T05:09:50.544Z,99.90
2018-09-18T05:12:19.786Z,99.90
2018-09-18T05:14:48.552Z,99.90
2018-09-18T05:17:17.319Z,99.90
2018-09-18T05:19:46.217Z,99.90
2018-09-18T05:22:14.979Z,99.90
2018-09-18T05:24:43.728Z,99.90
2018-09-18T05:27:12.442Z,99.90
2018-09-18T05:29:41.211Z,99.90
2018-09-18T05:32:10.060Z,99.90
2018-09-18T05:34:41.453Z,99.90
2018-09-18T05:37:10.321Z,99.90
2018-09-18T05:39:39.202Z,99.90
2018-09-18T05:42:08.123Z,99.90
2018-09-18T05:44:37.081Z,99.90
2018-09-18T05:47:06.083Z,99.90
2018-09-18T05:49:34.890Z,99.90
2018-09-18T05:52:03.641Z,99.90
2018-09-18T05:54:32.410Z,99.90
2018-09-18T05:57:06.025Z,99.90
2018-09-18T05:59:38.789Z,99.90
2018-09-18T06:04:47.748Z,99.90
2018-09-18T06:07:16.974Z,99.90
2018-09-18T06:09:50.754Z,99.90
2018-09-18T06:12:20.381Z,99.90
2018-09-18T06:14:49.541Z,99.90
2018-09-18T06:17:18.762Z,99.90
2018-09-18T06:19:47.774Z,99.90
2018-09-18T06:22:16.738Z,99.90
2018-09-18T06:24:45.725Z,99.90
2018-09-18T06:27:15.058Z,99.90
2018-09-18T06:29:44.367Z,99.90
2018-09-18T06:32:13.283Z,99.90
2018-09-18T06:34:42.737Z,99.90
2018-09-18T06:37:12.057Z,99.90
2018-09-18T06:39:41.116Z,99.90
2018-09-18T06:42:14.384Z,99.90
2018-09-18T06:44:50.189Z,99.90
2018-09-18T06:47:19.167Z,99.90
2018-09-18T06:49:48.211Z,99.90
2018-09-18T06:52:17.278Z,99.90
2018-09-18T06:54:46.187Z,99.90
2018-09-18T06:57:20.692Z,99.90
2018-09-18T06:59:53.011Z,99.90
2018-09-18T07:02:27.968Z,99.90
2018-09-18T07:05:00.296Z,99.90
2018-09-18T07:07:29.587Z,99.90
2018-09-18T07:09:58.731Z,99.90
2018-09-18T07:12:27.616Z,99.90
2018-09-18T07:14:57.085Z,99.90
2018-09-18T07:17:26.233Z,99.90
2018-09-18T07:19:55.720Z,99.90
2018-09-18T07:22:24.711Z,99.90
2018-09-18T07:24:53.730Z,99.90
2018-09-18T07:27:22.765Z,99.90
2018-09-18T07:29:51.900Z,99.90
2018-09-18T07:32:20.821Z,99.90
2018-09-18T07:34:49.869Z,99.90
2018-09-18T07:37:18.637Z,99.90
2018-09-18T07:39:47.521Z,99.90
2018-09-18T07:42:16.768Z,99.90
2018-09-18T07:44:45.706Z,99.90
2018-09-18T07:47:14.677Z,99.90
2018-09-18T07:49:43.689Z,99.90
2018-09-18T07:52:12.600Z,99.90
2018-09-18T07:54:41.673Z,99.90
2018-09-18T07:57:25.110Z,99.90
2018-09-18T08:00:01.019Z,99.90
2018-09-18T08:02:33.699Z,99.90
2018-09-18T08:05:07.182Z,99.90
2018-09-18T08:07:36.186Z,99.90
2018-09-18T08:10:06.061Z,99.90
2018-09-18T08:12:35.531Z,99.90
2018-09-18T08:15:04.760Z,99.90
2018-09-18T08:17:34.498Z,99.90
2018-09-18T08:20:04.887Z,99.90
2018-09-18T08:22:34.519Z,99.90
2018-09-18T08:25:04.139Z,99.90
2018-09-18T08:27:33.609Z,99.90
2018-09-18T08:30:04.308Z,99.90
2018-09-18T08:32:33.719Z,99.90
2018-09-18T08:35:03.630Z,99.90
2018-09-18T08:37:32.578Z,99.90
2018-09-18T08:40:02.010Z,99.90
2018-09-18T08:42:30.846Z,99.90
2018-09-18T08:44:59.666Z,99.90
2018-09-18T08:47:28.438Z,99.90
2018-09-18T08:49:57.269Z,99.90
2018-09-18T08:52:27.165Z,99.90
2018-09-18T08:54:56.476Z,99.90
2018-09-18T08:57:28.338Z,99.90
2018-09-18T09:00:01.159Z,99.90
2018-09-18T09:02:35.251Z,99.90
2018-09-18T09:05:09.277Z,99.90
2018-09-18T09:07:38.319Z,99.90
2018-09-18T09:10:07.062Z,99.90
2018-09-18T09:12:35.926Z,99.90
2018-09-18T09:15:05.549Z,99.90
2018-09-18T09:17:35.167Z,99.90
2018-09-18T09:20:05.564Z,99.90
2018-09-18T09:22:35.342Z,99.90
2018-09-18T09:25:04.650Z,99.90
2018-09-18T09:27:34.244Z,99.90
2018-09-18T09:30:03.238Z,99.90
2018-09-18T09:32:33.075Z,99.90
2018-09-18T09:35:01.837Z,99.90
2018-09-18T09:37:31.288Z,99.90
2018-09-18T09:40:00.087Z,99.90
2018-09-18T09:42:30.043Z,99.90
2018-09-18T09:44:59.556Z,99.90
2018-09-18T09:47:28.748Z,99.90
2018-09-18T09:49:57.825Z,99.90
2018-09-18T09:52:27.361Z,99.90
2018-09-18T09:54:57.750Z,99.90
2018-09-18T09:57:30.582Z,99.90
2018-09-18T10:00:04.208Z,99.90
2018-09-18T10:02:42.813Z,99.90
2018-09-18T10:05:15.050Z,99.90
2018-09-18T10:07:44.726Z,99.90
2018-09-18T10:10:14.360Z,99.90
2018-09-18T10:12:43.261Z,99.90
2018-09-18T10:15:12.313Z,99.90
2018-09-18T10:17:41.181Z,99.90
2018-09-18T10:20:09.953Z,99.90
2018-09-18T10:22:38.907Z,99.90
2018-09-18T10:25:07.749Z,99.90
2018-09-18T10:27:38.090Z,99.90
2018-09-18T10:30:08.169Z,99.90
2018-09-18T10:32:38.388Z,99.90
2018-09-18T10:35:08.070Z,99.90
2018-09-18T10:37:37.245Z,99.90
2018-09-18T10:40:07.766Z,99.90
2018-09-18T10:42:36.971Z,99.90
2018-09-18T10:45:07.329Z,99.90
2018-09-18T10:47:37.485Z,99.90
2018-09-18T10:50:06.620Z,99.90
2018-09-18T10:52:35.559Z,99.90
2018-09-18T10:55:04.468Z,99.90
2018-09-18T10:57:40.409Z,99.90
2018-09-18T11:00:13.472Z,99.90
2018-09-18T11:02:47.436Z,99.90
2018-09-18T11:05:22.700Z,99.90
2018-09-18T11:07:51.583Z,99.90
2018-09-18T11:10:20.997Z,99.90
2018-09-18T11:12:49.834Z,99.90
2018-09-18T11:15:19.149Z,99.90
2018-09-18T11:17:47.985Z,99.80
2018-09-18T11:20:16.915Z,99.90
2018-09-18T11:22:45.722Z,99.90
2018-09-18T11:25:15.231Z,99.80
2018-09-18T11:27:47.459Z,99.90
2018-09-18T11:30:16.260Z,99.90
2018-09-18T11:32:46.387Z,99.40
2018-09-18T11:35:16.190Z,98.00
2018-09-18T11:37:46.804Z,98.10
2018-09-18T11:40:16.887Z,98.10
2018-09-18T11:42:46.771Z,98.60
2018-09-18T11:45:16.747Z,99.50
2018-09-18T11:47:46.231Z,99.60
2018-09-18T11:50:15.923Z,98.10
2018-09-18T11:52:47.056Z,98.30
2018-09-18T11:55:17.220Z,96.60
2018-09-18T11:57:51.547Z,96.80
2018-09-18T12:00:29.218Z,97.00
2018-09-18T12:03:08.532Z,96.40
2018-09-18T12:05:44.873Z,95.60
2018-09-18T12:08:18.122Z,94.30
2018-09-18T12:10:46.928Z,94.50
2018-09-18T12:13:15.819Z,95.10
2018-09-18T12:15:44.868Z,93.50
2018-09-18T12:18:13.880Z,92.80
2018-09-18T12:20:42.648Z,91.70
2018-09-18T12:23:11.462Z,93.30
2018-09-18T12:25:40.316Z,93.80
2018-09-18T12:28:09.200Z,92.30
2018-09-18T12:30:38.072Z,91.80
2018-09-18T12:33:06.941Z,92.00
2018-09-18T12:35:36.633Z,91.50
2018-09-18T12:38:05.387Z,90.70
2018-09-18T12:40:34.131Z,90.40
2018-09-18T12:43:02.963Z,90.90
2018-09-18T12:45:31.881Z,91.80
2018-09-18T12:48:00.764Z,91.30
2018-09-18T12:50:30.056Z,92.70
2018-09-18T12:52:58.817Z,91.20
2018-09-18T12:55:27.614Z,90.40
2018-09-18T12:57:56.549Z,91.40
2018-09-18T13:00:25.605Z,91.30
2018-09-18T13:02:54.458Z,92.40
2018-09-18T13:05:23.342Z,92.80
2018-09-18T13:07:52.199Z,92.30
2018-09-18T13:10:20.979Z,92.80
2018-09-18T13:12:49.763Z,92.60
2018-09-18T13:15:18.663Z,92.80
2018-09-18T13:17:47.625Z,93.90
2018-09-18T13:20:16.803Z,94.00
2018-09-18T13:22:46.268Z,94.30
2018-09-18T13:25:15.404Z,94.30
2018-09-18T13:27:44.183Z,95.70
2018-09-18T13:30:12.920Z,96.90
2018-09-18T13:32:41.711Z,97.10
2018-09-18T13:35:11.001Z,97.30
2018-09-18T13:37:40.635Z,98.10
2018-09-18T13:40:09.506Z,99.00
2018-09-18T13:42:38.287Z,98.90
2018-09-18T13:45:07.133Z,99.60
2018-09-18T13:47:36.030Z,99.90
2018-09-18T13:50:04.880Z,99.90
2018-09-18T13:52:33.712Z,99.90
2018-09-18T13:55:02.573Z,99.90
2018-09-18T13:57:31.437Z,99.90
2018-09-18T14:00:00.307Z,99.90
2018-09-18T14:02:29.162Z,99.90
2018-09-18T14:04:57.932Z,99.90
2018-09-18T14:07:26.729Z,99.90
2018-09-18T14:09:55.630Z,99.90
2018-09-18T14:12:24.462Z,99.90
2018-09-18T14:14:53.690Z,99.90
2018-09-18T14:17:22.602Z,99.90
2018-09-18T14:19:51.773Z,99.90
2018-09-18T14:22:20.697Z,99.90
2018-09-18T14:24:49.969Z,99.90
2018-09-18T14:27:18.904Z,99.90
2018-09-18T14:29:47.813Z,99.90
2018-09-18T14:32:16.874Z,99.90
2018-09-18T14:34:45.903Z,99.90
2018-09-18T14:37:15.075Z,99.90
2018-09-18T14:39:44.426Z,99.90
2018-09-18T14:42:13.360Z,99.90
2018-09-18T14:44:42.315Z,99.90
2018-09-18T14:47:11.281Z,99.90
2018-09-18T14:49:40.717Z,99.90
2018-09-18T14:52:10.011Z,99.90
2018-09-18T14:54:38.998Z,99.90
2018-09-18T14:57:07.932Z,99.90
2018-09-18T14:59:36.911Z,99.90
2018-09-18T15:02:06.122Z,99.90
2018-09-18T15:04:35.184Z,99.90
2018-09-18T15:07:04.342Z,99.90
2018-09-18T15:09:33.411Z,99.90
2018-09-18T15:12:03.142Z,99.90
2018-09-18T15:14:32.247Z,99.90
2018-09-18T15:17:01.272Z,99.90
2018-09-18T15:19:30.351Z,99.90
2018-09-18T15:21:59.582Z,99.90
2018-09-18T15:24:28.459Z,99.90
2018-09-18T15:26:57.450Z,99.90
2018-09-18T15:29:26.243Z,99.90
2018-09-18T15:31:55.716Z,99.90
2018-09-18T15:34:25.539Z,99.90
2018-09-18T15:36:54.944Z,99.90
2018-09-18T15:39:24.727Z,99.90
2018-09-18T15:41:54.019Z,99.90
2018-09-18T15:44:23.617Z,99.90
2018-09-18T15:46:52.900Z,99.90
2018-09-18T15:49:23.251Z,99.90
2018-09-18T15:51:53.383Z,99.90
2018-09-18T15:54:23.576Z,99.90
2018-09-18T15:56:52.568Z,99.90
2018-09-18T15:59:22.832Z,99.90
2018-09-18T16:01:51.933Z,99.90
2018-09-18T16:04:21.293Z,99.90
2018-09-18T16:06:50.081Z,99.90
2018-09-18T16:09:18.867Z,99.90
2018-09-18T16:11:48.551Z,99.90
2018-09-18T16:14:17.686Z,99.90
2018-09-18T16:16:46.939Z,99.90
2018-09-18T16:19:15.730Z,99.90
2018-09-18T16:21:44.569Z,99.90
2018-09-18T16:24:13.538Z,99.90
2018-09-18T16:26:42.405Z,99.90
2018-09-18T16:29:11.368Z,99.90
2018-09-18T16:31:40.174Z,99.90
2018-09-18T16:34:08.946Z,99.90
2018-09-18T16:36:37.817Z,99.90
2018-09-18T16:39:06.658Z,99.90
2018-09-18T16:41:35.567Z,99.90
2018-09-18T16:44:04.377Z,99.90
2018-09-18T16:46:33.162Z,99.90
2018-09-18T16:49:03.801Z,99.90
2018-09-18T16:51:33.058Z,99.90
2018-09-18T16:54:02.215Z,99.90
2018-09-18T16:56:31.021Z,99.90
2018-09-18T16:58:59.906Z,99.90
2018-09-18T17:01:28.738Z,99.90
2018-09-18T17:03:57.556Z,99.90
2018-09-18T17:06:26.435Z,99.90
2018-09-18T17:08:55.205Z,99.90
2018-09-18T17:11:24.199Z,99.90
2018-09-18T17:13:52.964Z,99.90
2018-09-18T17:16:21.815Z,99.90
2018-09-18T17:18:50.725Z,99.90
2018-09-18T17:21:19.462Z,99.90
2018-09-18T17:23:48.309Z,99.90
2018-09-18T17:26:17.232Z,99.90
2018-09-18T17:28:46.337Z,99.90
2018-09-18T17:31:15.031Z,99.90
2018-09-18T17:33:43.845Z,99.90
2018-09-18T17:36:12.663Z,99.90
2018-09-18T17:38:41.427Z,99.90
2018-09-18T17:41:10.279Z,99.90
2018-09-18T17:43:39.558Z,99.90
2018-09-18T17:46:08.332Z,99.90
2018-09-18T17:48:37.326Z,99.90
2018-09-18T17:51:06.125Z,99.90
2018-09-18T17:53:34.975Z,99.90
2018-09-18T17:56:04.161Z,99.90
2018-09-18T17:58:32.953Z,99.90
2018-09-18T18:01:01.732Z,99.90
2018-09-18T18:03:30.396Z,99.90
2018-09-18T18:05:59.192Z,99.90
2018-09-18T18:08:28.111Z,99.90
2018-09-18T18:10:57.141Z,99.90
2018-09-18T18:13:25.841Z,99.90
2018-09-18T18:15:54.662Z,99.90
2018-09-18T18:18:23.460Z,99.90
2018-09-18T18:20:52.448Z,99.90
2018-09-18T18:23:21.371Z,99.90
2018-09-18T18:25:50.201Z,99.90
2018-09-18T18:28:19.095Z,99.90
2018-09-18T18:30:47.991Z,99.90
2018-09-18T18:33:16.934Z,99.90
2018-09-18T18:35:45.884Z,99.90
2018-09-18T18:38:14.791Z,99.90
2018-09-18T18:40:43.630Z,99.90
2018-09-18T18:43:12.417Z,99.90
2018-09-18T18:45:41.136Z,99.90
2018-09-18T18:48:10.081Z,99.90
2018-09-18T18:50:38.767Z,99.90
2018-09-18T18:53:07.564Z,99.90
2018-09-18T18:55:36.350Z,99.90
2018-09-18T18:58:05.190Z,99.90
2018-09-18T19:00:34.239Z,99.90
2018-09-18T19:03:02.945Z,99.90
2018-09-18T19:05:31.688Z,99.90
2018-09-18T19:08:00.471Z,99.90
2018-09-18T19:10:29.259Z,99.90
2018-09-18T19:12:58.116Z,99.90
2018-09-18T19:15:26.943Z,99.90
2018-09-18T19:17:55.663Z,99.90
2018-09-18T19:20:24.465Z,99.90
2018-09-18T19:22:53.224Z,99.90
2018-09-18T19:25:22.194Z,99.90
2018-09-18T19:27:51.027Z,99.90
2018-09-18T19:30:20.073Z,99.90
2018-09-18T19:32:49.170Z,99.90
2018-09-18T19:35:17.985Z,99.90
2018-09-18T19:37:47.252Z,99.90
2018-09-18T19:40:15.978Z,99.90
2018-09-18T19:42:44.705Z,99.90
2018-09-18T19:45:13.493Z,99.90
2018-09-18T19:47:42.311Z,99.90
2018-09-18T19:50:17.438Z,99.90
2018-09-18T19:52:47.414Z,99.90
2018-09-18T19:55:16.797Z,99.90
2018-09-18T19:57:45.946Z,99.90
2018-09-18T20:00:14.844Z,99.90
2018-09-18T20:02:43.881Z,99.90
2018-09-18T20:05:13.114Z,99.90
2018-09-18T20:07:42.900Z,99.90
2018-09-18T20:10:11.695Z,99.90
2018-09-18T20:12:40.478Z,99.90
2018-09-18T20:15:09.669Z,99.90
2018-09-18T20:17:38.465Z,99.90
2018-09-18T20:20:07.354Z,99.90
2018-09-18T20:22:36.227Z,99.90
2018-09-18T20:25:05.442Z,99.90
2018-09-18T20:27:34.642Z,99.90
2018-09-18T20:30:03.447Z,99.90
2018-09-18T20:32:32.308Z,99.90
2018-09-18T20:35:01.336Z,99.90
2018-09-18T20:37:30.056Z,99.90
2018-09-18T20:39:58.962Z,99.90
2018-09-18T20:42:27.711Z,99.90
2018-09-18T20:44:56.433Z,99.90
2018-09-18T20:47:25.253Z,99.90
2018-09-18T20:49:54.069Z,99.90
2018-09-18T20:52:23.023Z,99.90
2018-09-18T20:54:51.972Z,99.90
2018-09-18T20:57:20.807Z,99.90
2018-09-18T20:59:49.608Z,99.90
2018-09-18T21:02:18.382Z,99.90
2018-09-18T21:04:47.545Z,99.90
2018-09-18T21:07:16.289Z,99.90
2018-09-18T21:09:45.048Z,99.90
2018-09-18T21:12:13.828Z,99.90
2018-09-18T21:14:42.614Z,99.90
2018-09-18T21:17:11.405Z,99.90
2018-09-18T21:19:40.201Z,99.90
2018-09-18T21:22:09.008Z,99.90
2018-09-18T21:24:37.786Z,99.90
2018-09-18T21:27:06.758Z,99.90
2018-09-18T21:29:35.696Z,99.90
2018-09-18T21:32:04.476Z,99.90
2018-09-18T21:34:33.246Z,99.90
2018-09-18T21:37:02.121Z,99.90
2018-09-18T21:39:31.050Z,99.90
2018-09-18T21:41:59.980Z,99.90
2018-09-18T21:44:28.704Z,99.90
2018-09-18T21:46:57.500Z,99.90
2018-09-18T21:49:26.386Z,99.90
2018-09-18T21:51:55.247Z,99.90
2018-09-18T21:54:24.413Z,99.90
2018-09-18T21:56:53.177Z,99.90
2018-09-18T21:59:21.922Z,99.90
2018-09-18T22:01:50.675Z,99.90
2018-09-18T22:04:19.421Z,99.90
2018-09-18T22:06:48.397Z,99.90
2018-09-18T22:09:17.268Z,99.90
2018-09-18T22:11:46.029Z,99.90
2018-09-18T22:14:14.815Z,99.90
2018-09-18T22:16:43.579Z,99.90
2018-09-18T22:19:12.455Z,99.90
2018-09-18T22:21:41.213Z,99.90
2018-09-18T22:24:10.002Z,99.90
2018-09-18T22:26:38.772Z,99.90
2018-09-18T22:29:07.521Z,99.90
2018-09-18T22:31:36.384Z,99.90
2018-09-18T22:34:05.397Z,99.90
2018-09-18T22:36:40.484Z,99.90
2018-09-18T22:39:11.403Z,99.90
2018-09-18T22:41:41.413Z,99.90
2018-09-18T22:44:10.354Z,99.90
2018-09-18T22:46:39.133Z,99.90
2018-09-18T22:49:08.459Z,99.90
2018-09-18T22:51:37.902Z,99.90
2018-09-18T22:54:06.763Z,99.90
2018-09-18T22:56:35.650Z,99.90
2018-09-18T22:59:04.399Z,99.90
2018-09-18T23:01:33.111Z,99.90
2018-09-18T23:04:01.870Z,99.90
2018-09-18T23:06:30.592Z,99.90
2018-09-18T23:08:59.436Z,99.90
2018-09-18T23:11:28.161Z,99.90
2018-09-18T23:13:56.941Z,99.90
2018-09-18T23:16:25.748Z,99.90
2018-09-18T23:18:54.652Z,99.90
2018-09-18T23:21:23.476Z,99.90
2018-09-18T23:23:52.227Z,99.90
2018-09-18T23:26:20.996Z,99.90
2018-09-18T23:28:49.692Z,99.90
2018-09-18T23:31:18.453Z,99.90
2018-09-18T23:33:47.386Z,99.90
2018-09-18T23:36:16.180Z,99.90
2018-09-18T23:38:44.980Z,99.90
2018-09-18T23:41:14.264Z,99.90
2018-09-18T23:43:43.043Z,99.90
2018-09-18T23:46:12.281Z,99.90
2018-09-18T23:48:41.113Z,99.90
2018-09-18T23:51:09.896Z,99.90
2018-09-18T23:53:38.691Z,99.90
2018-09-18T23:56:07.627Z,99.90
2018-09-18T23:58:36.495Z,99.90
